Date,TemperatureHighF,TemperatureAvgF,TemperatureLowF,DewpointHighF,DewpointAvgF,DewpointLowF,HumidityHigh,HumidityAvg,HumidityLow,PressureMaxIn,PressureMinIn,WindSpeedMaxMPH,WindSpeedAvgMPH,GustSpeedMaxMPH,PrecipitationSumIn
2014-1-1,47.3,43.5,34.1,43.3,40.7,33.6,98,90,80,30.30,30.22,4,0,4,0.00
2014-1-3,48.2,44.1,0.0,38.4,36.3,0.0,96,73,66,30.18,30.07,14,2,14,0.00
2014-1-4,47.9,41.0,0.0,37.2,33.3,0.0,94,74,60,30.37,30.33,5,0,5,0.00
2014-1-5,48.9,43.6,32.9,37.0,35.3,30.6,91,73,62,30.41,30.31,3,0,3,0.00
2014-1-6,41.8,36.6,0.0,38.3,34.2,0.0,95,88,88,30.15,30.09,0,0,0,0.00
2014-1-11,51.6,50.9,50.1,43.6,41.9,40.3,77,71,69,29.40,29.38,22,9,27,0.00
2014-2-15,48.9,42.1,39.8,45.2,37.2,35.0,89,83,72,29.62,29.27,20,5,20,0.34
2014-2-16,44.8,41.2,35.3,39.7,34.9,31.5,93,79,60,29.92,29.62,28,5,28,0.53
2014-2-17,45.2,39.9,37.0,40.4,37.9,35.2,96,92,76,29.89,29.64,17,1,17,1.33
2014-2-18,46.2,41.8,37.3,40.9,37.3,32.7,96,84,66,29.89,29.56,21,4,22,0.46
2014-2-19,42.5,38.8,35.5,35.8,34.3,31.7,92,84,66,30.08,29.82,16,3,16,0.12
2014-2-20,44.9,41.7,39.5,40.2,38.1,35.2,94,87,76,30.18,29.98,21,3,21,0.21
2014-2-21,43.5,39.9,32.8,37.2,33.7,29.4,93,79,58,30.22,30.15,13,1,13,0.02
2014-2-22,39.1,35.4,30.9,35.5,32.1,28.8,95,88,67,30.16,29.97,11,1,11,0.04
2014-2-23,44.9,40.3,36.6,41.9,38.5,35.3,96,93,79,29.98,29.86,5,0,5,0.17
2014-2-24,42.6,40.5,37.6,41.8,39.6,36.8,97,97,96,30.01,29.92,5,0,5,0.26
2014-2-25,51.6,42.6,39.2,45.8,40.6,37.9,98,93,75,30.02,29.89,4,0,4,0.01
2014-2-26,53.1,42.3,32.9,44.0,38.3,31.9,98,87,61,29.89,29.60,5,0,6,0.00
2014-2-27,54.8,45.3,39.9,42.3,40.1,38.6,96,83,59,29.67,29.54,6,0,6,0.00
2014-2-28,59.5,46.0,35.2,43.7,38.3,33.5,96,76,52,29.66,29.39,11,0,11,0.00
2014-3-1,49.9,44.0,38.6,39.1,36.5,34.5,89,75,59,29.60,29.43,13,1,13,0.00
2014-3-2,51.6,46.8,40.9,45.2,41.4,37.8,95,82,70,29.61,29.45,19,3,19,0.25
2014-3-3,52.5,47.3,44.9,48.5,44.3,40.3,96,89,81,29.85,29.58,17,1,18,0.49
2014-3-4,51.6,47.9,45.5,48.8,45.9,43.7,98,93,82,29.88,29.73,7,0,7,0.27
2014-3-5,57.8,52.3,48.8,53.6,49.4,45.8,98,90,71,29.73,29.36,14,1,14,0.88
2014-3-6,54.4,50.2,47.4,47.3,43.5,41.1,90,78,62,30.03,29.43,20,6,24,0.08
2014-3-7,57.8,48.0,37.2,44.9,41.5,35.1,96,80,51,30.20,30.03,12,1,13,0.01
2014-3-8,58.1,47.3,34.7,52.7,43.2,32.9,96,86,60,30.04,29.65,25,3,25,0.56
2014-3-9,55.9,50.8,46.2,51.5,48.1,44.2,97,91,69,29.95,29.77,12,1,12,0.64
2014-3-10,50.7,44.3,39.3,45.1,41.7,37.3,97,91,71,30.41,29.87,17,1,17,1.14
2014-3-11,57.2,44.3,34.7,43.4,39.1,33.7,98,83,57,30.50,30.34,9,0,9,0.00
2014-3-12,63.2,44.9,31.8,43.4,36.6,30.3,97,77,33,30.35,30.07,4,0,7,0.00
2014-3-13,58.3,47.2,33.8,44.6,39.7,32.3,96,77,47,30.10,29.94,12,0,12,0.05
2014-3-14,55.3,49.0,39.6,47.3,42.0,35.5,94,78,54,30.27,29.85,20,3,21,0.26
2014-3-15,63.4,49.1,35.3,50.2,41.0,33.2,95,76,44,30.26,30.11,20,2,20,0.13
2014-3-16,51.4,43.6,38.0,50.0,42.2,36.0,97,95,92,30.15,29.91,6,0,7,1.19
2014-3-17,47.3,40.9,33.8,37.6,33.5,29.1,95,76,53,30.28,29.93,21,2,21,0.01
2014-3-18,53.8,42.7,31.5,44.6,37.4,29.5,94,82,63,30.28,30.10,11,1,11,0.00
2014-3-19,46.2,42.5,39.1,42.9,39.2,32.9,96,88,72,30.16,29.98,13,1,13,0.27
2014-3-20,50.2,40.9,33.2,38.2,33.0,26.1,92,75,41,30.28,30.16,13,1,13,0.03
2014-3-21,53.5,39.5,31.0,36.6,31.6,27.0,96,76,40,30.28,30.19,11,0,11,0.01
2014-3-22,56.5,42.1,27.9,38.6,31.2,22.9,95,69,27,30.25,30.12,12,0,12,0.00
2014-3-23,56.7,45.7,37.6,39.5,37.4,34.1,89,74,49,30.24,30.15,11,0,11,0.00
2014-3-24,69.1,48.6,31.8,44.9,37.4,29.8,96,70,32,30.15,29.82,6,0,7,0.00
2014-3-25,55.6,49.7,43.3,47.4,41.9,38.4,91,75,58,29.84,29.47,22,3,22,0.07
2014-3-26,51.1,44.7,39.8,45.5,41.2,37.0,94,88,62,29.56,29.44,16,0,16,0.11
2014-3-27,50.5,44.9,41.5,46.1,42.2,39.1,96,90,70,29.82,29.49,14,1,14,0.42
2014-3-28,53.3,47.4,41.8,48.2,42.6,39.8,97,84,66,29.81,29.61,26,2,26,0.32
2014-3-29,50.5,45.6,42.3,42.9,41.0,38.3,95,84,68,29.77,29.63,18,2,18,0.47
2014-3-30,50.7,43.6,35.6,41.2,38.2,33.5,95,82,56,29.92,29.77,16,1,16,0.15
2014-3-31,60.9,44.5,31.2,42.3,35.4,28.9,96,75,32,29.89,29.62,10,0,10,0.00
2014-4-1,56.5,46.5,39.1,43.1,39.4,36.3,93,78,50,29.85,29.62,6,0,6,0.00
2014-4-2,56.3,45.8,35.0,41.7,36.7,32.2,95,73,41,29.94,29.84,14,1,14,0.00
2014-4-3,56.0,45.2,37.3,41.8,38.0,30.6,94,78,40,29.93,29.82,20,2,20,0.08
2014-4-4,52.3,45.0,38.9,44.9,40.7,37.2,96,86,58,29.90,29.85,15,1,16,0.21
2014-4-5,53.1,47.7,43.3,48.0,44.9,42.2,97,90,71,30.05,29.89,11,1,11,0.26
2014-4-6,58.9,51.0,46.0,52.1,48.3,44.9,97,91,71,30.23,30.05,6,0,8,0.10
2014-4-7,73.3,57.4,43.5,52.1,48.1,42.2,97,75,39,30.24,29.99,10,0,10,0.01
2014-4-8,62.6,54.5,48.3,52.4,48.0,44.6,94,80,56,30.09,30.00,11,1,11,0.24
2014-4-9,59.5,47.3,38.2,45.5,38.3,32.1,96,74,39,30.19,30.06,6,0,12,0.00
2014-4-10,61.5,47.9,37.2,41.4,37.5,31.4,93,70,35,30.18,30.07,12,0,12,0.00
2014-4-11,62.7,49.1,34.7,45.8,39.4,32.3,95,72,44,30.09,29.93,12,0,12,0.00
2014-4-12,62.0,51.3,42.9,43.5,40.8,35.3,88,69,41,30.09,29.98,13,1,13,0.00
2014-4-13,72.1,52.2,36.3,43.3,36.7,30.1,95,62,24,30.20,30.08,11,0,11,0.00
2014-4-14,68.6,51.8,35.5,43.9,36.4,29.9,92,61,25,30.08,29.97,18,2,18,0.00
2014-4-15,56.9,50.3,45.2,43.4,38.5,33.8,81,64,48,30.12,30.01,16,3,16,0.00
2014-4-16,48.3,46.9,46.2,44.9,44.4,43.1,94,91,82,30.02,29.99,2,0,2,0.08